createdAt,value
2023-11-18T05:59:07.910Z,1015.13
2023-11-18T06:02:07.994Z,1014.99
2023-11-18T06:05:07.968Z,1014.92
2023-11-18T06:08:07.748Z,1014.91
2023-11-18T06:11:07.876Z,1014.93
2023-11-18T06:14:07.763Z,1014.81
2023-11-18T06:17:08.090Z,1014.90
2023-11-18T06:20:07.889Z,1014.86
2023-11-18T06:23:07.812Z,1014.88
2023-11-18T06:26:07.686Z,1014.81
2023-11-18T06:29:07.948Z,1014.88
2023-11-18T06:32:07.799Z,1014.87
2023-11-18T06:35:08.019Z,1014.79
2023-11-18T06:38:07.645Z,1014.80
2023-11-18T06:41:07.949Z,1014.94
2023-11-18T06:44:07.768Z,1015.00
2023-11-18T06:47:08.133Z,1014.95
2023-11-18T06:50:07.871Z,1014.98
2023-11-18T06:53:07.943Z,1014.96
2023-11-18T06:56:07.787Z,1015.05
2023-11-18T06:59:07.926Z,1015.05
2023-11-18T07:02:07.978Z,1015.05
2023-11-18T07:05:08.073Z,1015.08
2023-11-18T07:08:07.708Z,1015.02
2023-11-18T07:11:07.853Z,1015.06
2023-11-18T07:14:07.898Z,1015.02
2023-11-18T07:17:07.908Z,1015.09
2023-11-18T07:20:07.828Z,1015.08
2023-11-18T07:23:07.843Z,1015.15
2023-11-18T07:26:07.736Z,1015.11
2023-11-18T07:29:07.783Z,1015.18
2023-11-18T07:32:07.716Z,1015.15
2023-11-18T07:35:07.962Z,1015.08
2023-11-18T07:38:07.851Z,1015.05
2023-11-18T07:41:07.840Z,1015.20
2023-11-18T07:44:07.768Z,1015.09
2023-11-18T07:47:07.914Z,1015.12
2023-11-18T07:50:07.810Z,1015.16
2023-11-18T07:53:07.970Z,1015.16
2023-11-18T07:56:07.864Z,1015.13
2023-11-18T07:59:08.005Z,1015.20
2023-11-18T08:02:07.832Z,1015.09
2023-11-18T08:05:08.015Z,1015.01
2023-11-18T08:08:07.825Z,1015.13
2023-11-18T08:11:07.968Z,1015.09
2023-11-18T08:14:07.808Z,1015.06
2023-11-18T08:17:07.896Z,1015.11
2023-11-18T08:20:07.741Z,1015.00
2023-11-18T08:23:07.997Z,1014.99
2023-11-18T08:26:07.767Z,1014.97
2023-11-18T08:29:08.065Z,1014.81
2023-11-18T08:32:07.761Z,1014.73
2023-11-18T08:35:08.135Z,1014.74
2023-11-18T08:38:07.807Z,1014.61
2023-11-18T08:41:08.030Z,1014.45
2023-11-18T08:44:18.331Z,1014.45
2023-11-18T08:47:07.960Z,1014.34
2023-11-18T08:50:07.780Z,1014.43
2023-11-18T08:53:07.949Z,1014.46
2023-11-18T08:56:07.806Z,1014.56
2023-11-18T08:59:07.929Z,1014.55
2023-11-18T09:02:07.723Z,1014.63
2023-11-18T09:05:07.874Z,1014.62
2023-11-18T09:08:07.809Z,1014.75
2023-11-18T09:11:07.946Z,1014.73
2023-11-18T09:14:07.881Z,1014.71
2023-11-18T09:17:08.020Z,1014.76
2023-11-18T09:20:07.805Z,1014.55
2023-11-18T09:23:07.910Z,1014.47
2023-11-18T09:26:07.864Z,1014.47
2023-11-18T09:29:08.054Z,1014.41
2023-11-18T09:32:07.938Z,1014.55
2023-11-18T09:35:07.893Z,1014.65
2023-11-18T09:38:07.897Z,1014.59
2023-11-18T09:41:08.044Z,1014.56
2023-11-18T09:44:07.838Z,1014.51
2023-11-18T09:47:07.877Z,1014.60
2023-11-18T09:50:07.701Z,1014.71
2023-11-18T09:53:07.849Z,1014.70
2023-11-18T09:56:07.698Z,1014.74
2023-11-18T09:59:08.020Z,1014.79
2023-11-18T10:02:07.899Z,1014.80
2023-11-18T10:05:07.836Z,1015.04
2023-11-18T10:08:07.751Z,1014.98
2023-11-18T10:11:08.050Z,1014.89
2023-11-18T10:14:07.769Z,1014.81
2023-11-18T10:17:08.391Z,1014.83
2023-11-18T10:20:07.877Z,1014.73
2023-11-18T10:23:07.994Z,1014.85
2023-11-18T10:26:07.786Z,1015.05
2023-11-18T10:29:08.042Z,1015.06
2023-11-18T10:32:07.883Z,1015.12
2023-11-18T10:35:08.068Z,1015.34
2023-11-18T10:38:07.764Z,1015.28
2023-11-18T10:41:07.872Z,1015.43
2023-11-18T10:44:07.883Z,1015.51
2023-11-18T10:47:08.142Z,1015.42
2023-11-18T10:50:07.954Z,1015.63
2023-11-18T10:53:08.098Z,1015.68
2023-11-18T10:56:07.813Z,1015.81
2023-11-18T10:59:07.933Z,1015.79
2023-11-18T11:02:07.897Z,1015.79
2023-11-18T11:05:08.093Z,1015.93
2023-11-18T11:08:08.028Z,1015.99
2023-11-18T11:11:07.910Z,1016.07
2023-11-18T11:14:07.847Z,1016.01
2023-11-18T11:17:08.045Z,1016.02
2023-11-18T11:20:07.848Z,1016.06
2023-11-18T11:23:07.932Z,1016.05
2023-11-18T11:26:07.814Z,1015.94
2023-11-18T11:29:07.874Z,1015.96
2023-11-18T11:32:07.857Z,1016.00
2023-11-18T11:35:07.975Z,1015.86
2023-11-18T11:38:07.994Z,1015.86
2023-11-18T11:41:08.029Z,1015.87
2023-11-18T11:44:07.781Z,1015.86
2023-11-18T11:47:08.025Z,1015.85
2023-11-18T11:50:07.835Z,1015.85
2023-11-18T11:53:08.078Z,1015.81
2023-11-18T11:56:07.878Z,1015.77
2023-11-18T11:59:07.937Z,1015.71
2023-11-18T12:02:07.843Z,1015.56
2023-11-18T12:05:08.259Z,1015.46
2023-11-18T12:08:07.856Z,1015.29
2023-11-18T12:11:07.818Z,1015.18
2023-11-18T12:14:07.898Z,1015.03
2023-11-18T12:17:07.982Z,1015.07
2023-11-18T12:20:07.857Z,1015.05
2023-11-18T12:23:07.962Z,1015.14
2023-11-18T12:26:07.859Z,1015.08
2023-11-18T12:29:08.257Z,1015.02
2023-11-18T12:32:07.832Z,1014.93
2023-11-18T12:35:07.951Z,1015.02
2023-11-18T12:38:07.955Z,1014.93
2023-11-18T12:41:07.986Z,1015.01
2023-11-18T12:44:08.006Z,1015.03
2023-11-18T12:47:07.926Z,1015.11
2023-11-18T12:50:07.913Z,1015.12
2023-11-18T12:53:07.961Z,1014.96
2023-11-18T12:56:07.966Z,1014.63
2023-11-18T12:59:08.012Z,1014.79
2023-11-18T13:02:07.927Z,1014.85
2023-11-18T13:05:07.867Z,1014.74
2023-11-18T13:08:07.808Z,1014.73
2023-11-18T13:11:07.945Z,1014.75
2023-11-18T13:14:07.877Z,1014.63
2023-11-18T13:17:07.923Z,1014.59
2023-11-18T13:20:07.946Z,1014.66
2023-11-18T13:23:08.128Z,1014.80
2023-11-18T13:26:07.892Z,1014.74
2023-11-18T13:29:08.000Z,1014.60
2023-11-18T13:32:07.800Z,1014.70
2023-11-18T13:35:08.036Z,1014.64
2023-11-18T13:38:07.792Z,1014.52
2023-11-18T13:41:07.952Z,1014.55
2023-11-18T13:44:07.810Z,1014.48
2023-11-18T13:47:08.044Z,1014.49
2023-11-18T13:50:07.850Z,1014.36
2023-11-18T13:53:07.984Z,1014.31
2023-11-18T13:56:07.896Z,1014.17
2023-11-18T13:59:08.040Z,1014.19
2023-11-18T14:02:07.884Z,1014.17
2023-11-18T14:05:08.002Z,1014.01
2023-11-18T14:08:07.920Z,1013.97
2023-11-18T14:11:13.316Z,1013.83
2023-11-18T14:14:07.879Z,1013.75
2023-11-18T14:17:07.999Z,1013.75
2023-11-18T14:20:07.803Z,1013.68
2023-11-18T14:23:07.928Z,1013.61
2023-11-18T14:26:07.773Z,1013.58
2023-11-18T14:29:07.951Z,1013.51
2023-11-18T14:32:08.008Z,1013.43
2023-11-18T14:35:07.905Z,1013.43
2023-11-18T14:38:08.118Z,1013.36
2023-11-18T14:41:07.952Z,1013.33
2023-11-18T14:44:07.900Z,1013.19
2023-11-18T14:47:07.967Z,1013.15
2023-11-18T14:50:07.997Z,1013.03
2023-11-18T14:53:08.090Z,1013.04
2023-11-18T14:56:07.913Z,1012.93
2023-11-18T14:59:07.957Z,1012.94
2023-11-18T15:02:07.989Z,1012.93
2023-11-18T15:05:08.117Z,1012.87
2023-11-18T15:08:07.921Z,1012.81
2023-11-18T15:11:07.932Z,1012.89
2023-11-18T15:14:07.890Z,1012.98
2023-11-18T15:17:08.000Z,1012.87
2023-11-18T15:20:07.878Z,1012.92
2023-11-18T15:23:08.029Z,1012.85
2023-11-18T15:26:07.899Z,1012.85
2023-11-18T15:29:08.052Z,1012.75
2023-11-18T15:32:07.894Z,1012.61
2023-11-18T15:35:08.225Z,1012.74
2023-11-18T15:38:08.001Z,1012.85
2023-11-18T15:41:08.037Z,1012.78
2023-11-18T15:44:07.898Z,1012.77
2023-11-18T15:47:07.908Z,1012.73
2023-11-18T15:50:07.997Z,1012.75
2023-11-18T15:53:08.294Z,1012.78
2023-11-18T15:56:07.864Z,1012.56
2023-11-18T15:59:08.052Z,1012.67
2023-11-18T16:02:07.727Z,1012.62
2023-11-18T16:05:08.084Z,1012.68
2023-11-18T16:08:07.806Z,1012.57
2023-11-18T16:11:07.973Z,1012.69
2023-11-18T16:14:07.855Z,1012.63
2023-11-18T16:17:08.125Z,1012.60
2023-11-18T16:20:07.964Z,1012.55
2023-11-18T16:23:08.040Z,1012.42
2023-11-18T16:26:08.085Z,1012.45
2023-11-18T16:29:08.052Z,1012.40
2023-11-18T16:32:07.956Z,1012.17
2023-11-18T16:35:08.029Z,1012.19
2023-11-18T16:38:08.091Z,1012.12
2023-11-18T16:41:08.125Z,1012.00
2023-11-18T16:44:07.877Z,1011.99
2023-11-18T16:47:08.192Z,1011.84
2023-11-18T16:50:08.017Z,1011.76
2023-11-18T16:53:08.196Z,1011.80
2023-11-18T16:56:07.800Z,1011.60
2023-11-18T16:59:07.983Z,1011.37
2023-11-18T17:02:07.819Z,1011.35
2023-11-18T17:05:07.943Z,1011.56
2023-11-18T17:08:09.040Z,1011.39
2023-11-18T17:11:08.064Z,1011.16
2023-11-18T17:14:07.992Z,1011.21
2023-11-18T17:17:08.125Z,1011.19
2023-11-18T17:20:07.852Z,1011.26
2023-11-18T17:23:08.009Z,1011.25
2023-11-18T17:26:07.897Z,1011.11
2023-11-18T17:29:08.196Z,1010.90
2023-11-18T17:32:07.971Z,1010.89
2023-11-18T17:35:07.998Z,1011.07
2023-11-18T17:38:07.793Z,1011.02
2023-11-18T17:41:07.967Z,1010.74
2023-11-18T17:44:07.852Z,1010.65
2023-11-18T17:47:08.100Z,1010.75
2023-11-18T17:50:07.793Z,1010.79
2023-11-18T17:53:08.064Z,1010.68
2023-11-18T17:56:07.912Z,1010.61
2023-11-18T17:59:08.202Z,1010.42
2023-11-18T18:02:08.064Z,1010.35
2023-11-18T18:05:08.177Z,1010.40
2023-11-18T18:08:07.868Z,1010.19
2023-11-18T18:11:08.091Z,1010.17
2023-11-18T18:14:07.910Z,1010.06
2023-11-18T18:17:08.070Z,1010.06
2023-11-18T18:20:08.724Z,1009.99
2023-11-18T18:23:08.105Z,1009.93
2023-11-18T18:26:07.890Z,1009.88
2023-11-18T18:29:08.071Z,1009.77
2023-11-18T18:32:07.876Z,1009.69
2023-11-18T18:35:07.930Z,1009.66
2023-11-18T18:38:07.832Z,1009.42
2023-11-18T18:41:07.912Z,1009.58
2023-11-18T18:44:07.848Z,1009.43
2023-11-18T18:47:08.122Z,1009.29
2023-11-18T18:50:07.977Z,1009.05
2023-11-18T18:53:07.968Z,1009.19
2023-11-18T18:56:07.919Z,1008.79
2023-11-18T18:59:08.022Z,1008.63
2023-11-18T19:02:08.040Z,1008.64
2023-11-18T19:05:08.057Z,1008.70
2023-11-18T19:08:08.010Z,1008.46
